createdAt,value
2022-11-05T00:00:40.445Z,101584.72
2022-11-05T00:03:27.902Z,101585.03
2022-11-05T00:06:15.031Z,101590.13
2022-11-05T00:09:01.880Z,101586.46
2022-11-05T00:11:49.111Z,101586.92
2022-11-05T00:14:36.474Z,101591.02
2022-11-05T00:17:05.851Z,101597.10
2022-11-05T00:19:35.181Z,101587.17
2022-11-05T00:22:22.363Z,101588.97
2022-11-05T00:25:09.503Z,101590.45
2022-11-05T00:27:38.721Z,101599.28
2022-11-05T00:30:09.808Z,101596.92
2022-11-05T00:32:39.621Z,101609.47
2022-11-05T00:35:09.576Z,101617.31
2022-11-05T00:37:38.954Z,101612.34
2022-11-05T00:40:09.637Z,101620.27
2022-11-05T00:42:59.948Z,101624.19
2022-11-05T00:45:30.749Z,101627.31
2022-11-05T00:48:17.832Z,101634.30
2022-11-05T00:50:47.739Z,101629.69
2022-11-05T00:53:16.966Z,101635.62
2022-11-05T00:55:47.254Z,101637.09
2022-11-05T00:58:18.818Z,101635.12
2022-11-05T01:00:54.493Z,101633.41
2022-11-05T01:03:26.573Z,101635.28
2022-11-05T01:05:59.144Z,101645.83
2022-11-05T01:08:28.133Z,101648.59
2022-11-05T01:10:59.013Z,101645.58
2022-11-05T01:13:30.325Z,101647.45
2022-11-05T01:16:01.262Z,101657.91
2022-11-05T01:18:30.577Z,101654.36
2022-11-05T01:20:59.953Z,101656.36
2022-11-05T01:23:30.139Z,101658.77
2022-11-05T01:25:59.944Z,101658.92
2022-11-05T01:28:29.574Z,101662.15
2022-11-05T01:30:59.633Z,101653.38
2022-11-05T01:33:28.861Z,101651.16
2022-11-05T01:35:58.522Z,101655.00
2022-11-05T01:38:27.912Z,101654.59
2022-11-05T01:40:57.341Z,101653.45
2022-11-05T01:43:26.569Z,101648.30
2022-11-05T01:45:58.630Z,101650.17
2022-11-05T01:48:35.743Z,101642.49
2022-11-05T01:51:13.474Z,101653.47
2022-11-05T01:53:45.961Z,101650.08
2022-11-05T01:56:21.249Z,101650.08
2022-11-05T01:58:53.785Z,101647.49
2022-11-05T02:01:22.512Z,101642.80
2022-11-05T02:03:53.958Z,101648.55
2022-11-05T02:06:23.542Z,101646.72
2022-11-05T02:08:58.406Z,101648.55
2022-11-05T02:11:27.699Z,101649.48
2022-11-05T02:13:56.933Z,101649.64
2022-11-05T02:16:35.028Z,101648.86
2022-11-05T02:19:27.112Z,101647.92
2022-11-05T02:22:33.258Z,101639.72
2022-11-05T02:25:22.291Z,101649.02
2022-11-05T02:28:10.533Z,101649.55
2022-11-05T02:30:48.539Z,101647.70
2022-11-05T02:33:36.229Z,101643.27
2022-11-05T02:36:17.549Z,101640.09
2022-11-05T02:39:14.189Z,101645.31
2022-11-05T02:41:49.496Z,101649.02
2022-11-05T02:44:36.746Z,101652.78
2022-11-05T02:47:17.052Z,101652.48
2022-11-05T02:50:04.282Z,101652.56
2022-11-05T02:52:48.363Z,101653.24
2022-11-05T02:55:35.208Z,101653.84
2022-11-05T02:58:07.536Z,101656.38
2022-11-05T03:00:56.499Z,101655.31
2022-11-05T03:03:31.672Z,101649.26
2022-11-05T03:06:29.042Z,101648.70
2022-11-05T03:09:24.094Z,101654.45
2022-11-05T03:12:24.368Z,101650.84
2022-11-05T03:15:05.092Z,101655.53
2022-11-05T03:18:02.955Z,101656.92
2022-11-05T03:20:37.933Z,101658.83
2022-11-05T03:23:15.944Z,101650.69
2022-11-05T03:25:48.352Z,101650.92
2022-11-05T03:28:19.217Z,101657.45
2022-11-05T03:30:49.845Z,101655.20
2022-11-05T03:33:21.885Z,101649.98
2022-11-05T03:35:56.410Z,101653.83
2022-11-05T03:38:36.546Z,101649.46
2022-11-05T03:41:10.842Z,101651.14
2022-11-05T03:43:42.823Z,101645.70
2022-11-05T03:46:20.706Z,101642.86
2022-11-05T03:48:53.108Z,101640.25
2022-11-05T03:51:31.697Z,101647.16
2022-11-05T03:54:02.749Z,101648.94
2022-11-05T03:56:38.375Z,101653.67
2022-11-05T03:59:09.158Z,101649.69
2022-11-05T04:01:39.573Z,101652.00
2022-11-05T04:04:09.571Z,101659.27
2022-11-05T04:06:56.549Z,101660.51
2022-11-05T04:09:43.577Z,101660.06
2022-11-05T04:12:31.152Z,101658.60
2022-11-05T04:15:00.390Z,101663.05
2022-11-05T04:17:29.691Z,101667.03
2022-11-05T04:20:17.030Z,101670.66
2022-11-05T04:23:04.023Z,101665.35
2022-11-05T04:25:33.421Z,101672.36
2022-11-05T04:28:02.726Z,101678.44
2022-11-05T04:30:31.954Z,101693.36
2022-11-05T04:33:15.884Z,101697.25
2022-11-05T04:35:49.470Z,101676.45
2022-11-05T04:38:20.314Z,101693.59
2022-11-05T04:40:49.543Z,101700.50
2022-11-05T04:43:20.450Z,101698.45
2022-11-05T04:45:50.265Z,101700.96
2022-11-05T04:48:19.463Z,101692.25
2022-11-05T04:50:48.698Z,101691.47
2022-11-05T04:53:17.939Z,101696.33
2022-11-05T04:55:47.138Z,101690.48
2022-11-05T04:58:17.062Z,101689.34
2022-11-05T05:00:46.379Z,101685.44
2022-11-05T05:03:15.830Z,101691.58
2022-11-05T05:05:45.023Z,101692.19
2022-11-05T05:08:14.242Z,101695.89
2022-11-05T05:10:43.730Z,101696.98
2022-11-05T05:13:13.521Z,101701.34
2022-11-05T05:15:42.966Z,101697.50
2022-11-05T05:18:12.222Z,101703.89
2022-11-05T05:20:59.544Z,101698.45
2022-11-05T05:23:28.846Z,101705.42
2022-11-05T05:26:01.856Z,101708.64
2022-11-05T05:28:31.068Z,101705.50
2022-11-05T05:31:01.530Z,101708.49
2022-11-05T05:33:30.866Z,101707.27
2022-11-05T05:36:05.748Z,101704.73
2022-11-05T05:38:33.111Z,101711.33
2022-11-05T05:41:02.326Z,101704.50
2022-11-05T05:43:32.879Z,101705.97
2022-11-05T05:46:10.508Z,101700.11
2022-11-05T05:48:39.862Z,101698.58
2022-11-05T05:51:11.237Z,101703.95
2022-11-05T05:53:40.432Z,101704.81
2022-11-05T05:56:09.664Z,101707.02
2022-11-05T05:58:40.365Z,101708.02
2022-11-05T06:01:18.374Z,101711.39
2022-11-05T06:03:43.827Z,101704.63
2022-11-05T06:06:14.798Z,101715.86
2022-11-05T06:08:44.038Z,101708.77
2022-11-05T06:11:13.729Z,101710.34
2022-11-05T06:13:43.182Z,101705.64
2022-11-05T06:16:12.785Z,101709.70
2022-11-05T06:18:42.236Z,101713.02
2022-11-05T06:21:13.580Z,101714.93
2022-11-05T06:23:44.862Z,101715.70
2022-11-05T06:26:16.007Z,101711.34
2022-11-05T06:28:46.379Z,101713.55
2022-11-05T06:31:16.212Z,101719.33
2022-11-05T06:33:45.623Z,101719.41
2022-11-05T06:36:19.221Z,101716.31
2022-11-05T06:38:48.736Z,101715.86
2022-11-05T06:41:17.998Z,101715.41
2022-11-05T06:43:47.242Z,101721.46
2022-11-05T06:46:16.703Z,101726.08
2022-11-05T06:48:46.089Z,101733.14
2022-11-05T06:51:15.603Z,101722.16
2022-11-05T06:53:44.937Z,101731.76
2022-11-05T06:56:14.512Z,101728.55
2022-11-05T06:58:43.860Z,101733.39
2022-11-05T07:01:13.127Z,101728.17
2022-11-05T07:03:42.379Z,101729.85
2022-11-05T07:06:11.775Z,101735.60
2022-11-05T07:08:41.157Z,101739.67
2022-11-05T07:11:10.488Z,101732.98
2022-11-05T07:13:39.862Z,101737.39
2022-11-05T07:16:09.201Z,101737.77
2022-11-05T07:18:38.577Z,101736.30
2022-11-05T07:21:07.998Z,101740.56
2022-11-05T07:23:37.343Z,101742.87
2022-11-05T07:26:06.802Z,101744.17
2022-11-05T07:28:36.154Z,101747.16
2022-11-05T07:31:05.432Z,101751.78
2022-11-05T07:33:36.721Z,101753.39
2022-11-05T07:36:06.490Z,101754.55
2022-11-05T07:38:35.893Z,101759.87
2022-11-05T07:41:05.251Z,101760.09
2022-11-05T07:43:34.493Z,101760.87
2022-11-05T07:46:03.838Z,101764.16
2022-11-05T07:48:33.077Z,101766.31
2022-11-05T07:51:02.369Z,101759.63
2022-11-05T07:53:31.644Z,101765.17
2022-11-05T07:56:00.992Z,101767.62
2022-11-05T07:58:30.363Z,101772.17
2022-11-05T08:00:59.703Z,101774.09
2022-11-05T08:03:29.181Z,101769.78
2022-11-05T08:05:58.670Z,101772.16
2022-11-05T08:08:28.096Z,101771.84
2022-11-05T08:11:08.645Z,101766.49
2022-11-05T08:13:38.372Z,101768.41
2022-11-05T08:16:08.269Z,101763.25
2022-11-05T08:18:37.781Z,101763.50
2022-11-05T08:21:07.319Z,101754.87
2022-11-05T08:23:36.804Z,101750.13
2022-11-05T08:26:07.556Z,101757.56
2022-11-05T08:28:36.792Z,101760.45
2022-11-05T08:31:06.361Z,101759.56
2022-11-05T08:33:35.746Z,101759.09
2022-11-05T08:36:06.210Z,101761.02
2022-11-05T08:38:35.440Z,101769.30
2022-11-05T08:41:05.066Z,101764.02
2022-11-05T08:43:34.426Z,101766.93
2022-11-05T08:46:03.737Z,101763.21
2022-11-05T08:48:32.995Z,101770.94
2022-11-05T08:51:02.232Z,101772.73
2022-11-05T08:53:31.538Z,101770.41
2022-11-05T08:56:00.816Z,101766.86
2022-11-05T08:58:30.014Z,101768.17
2022-11-05T09:01:04.726Z,101773.21
2022-11-05T09:03:30.405Z,101775.23
2022-11-05T09:05:59.773Z,101775.39
2022-11-05T09:08:29.068Z,101777.81
2022-11-05T09:10:58.337Z,101771.20
2022-11-05T09:13:28.160Z,101775.73
2022-11-05T09:15:59.857Z,101771.63
2022-11-05T09:18:29.849Z,101774.28
2022-11-05T09:20:59.191Z,101776.02
2022-11-05T09:23:28.727Z,101774.70
2022-11-05T09:25:57.955Z,101774.22
2022-11-05T09:28:28.393Z,101779.21
2022-11-05T09:30:57.771Z,101773.94
2022-11-05T09:33:28.452Z,101783.67
2022-11-05T09:36:00.091Z,101791.94
2022-11-05T09:38:30.752Z,101793.48
2022-11-05T09:41:08.822Z,101799.37
2022-11-05T09:43:41.560Z,101792.66
2022-11-05T09:46:13.835Z,101793.16
2022-11-05T09:48:43.925Z,101793.39
2022-11-05T09:51:20.763Z,101793.55
2022-11-05T09:53:47.060Z,101796.19
2022-11-05T09:56:34.433Z,101801.48
2022-11-05T09:59:26.595Z,101801.45
2022-11-05T10:01:59.153Z,101801.48
2022-11-05T10:04:31.137Z,101794.44
2022-11-05T10:07:03.071Z,101802.09
2022-11-05T10:09:45.452Z,101789.06
2022-11-05T10:12:20.780Z,101806.45
2022-11-05T10:15:02.166Z,101797.59
2022-11-05T10:17:36.320Z,101798.71
2022-11-05T10:20:06.691Z,101802.34
2022-11-05T10:22:36.198Z,101803.41
2022-11-05T10:25:08.635Z,101800.42
2022-11-05T10:27:39.034Z,101802.72
2022-11-05T10:30:10.823Z,101809.17
2022-11-05T10:32:41.416Z,101805.08
2022-11-05T10:35:14.407Z,101801.02
2022-11-05T10:37:43.982Z,101803.20
2022-11-05T10:40:19.310Z,101796.64
2022-11-05T10:42:54.657Z,101799.16
2022-11-05T10:45:45.174Z,101805.99
2022-11-05T10:48:37.021Z,101802.16
2022-11-05T10:51:06.311Z,101799.60
2022-11-05T10:53:39.179Z,101797.95
2022-11-05T10:56:17.230Z,101792.62
2022-11-05T10:58:49.757Z,101803.12
2022-11-05T11:01:19.343Z,101794.98
2022-11-05T11:03:51.634Z,101796.41
2022-11-05T11:06:28.918Z,101803.42
2022-11-05T11:09:03.534Z,101801.98
2022-11-05T11:11:35.913Z,101799.92
2022-11-05T11:14:08.031Z,101796.97
2022-11-05T11:16:42.515Z,101787.66
2022-11-05T11:19:32.806Z,101791.44
2022-11-05T11:22:09.350Z,101789.62
2022-11-05T11:24:41.152Z,101784.03
2022-11-05T11:27:25.383Z,101782.33
2022-11-05T11:30:03.113Z,101787.63
2022-11-05T11:32:40.451Z,101791.61
2022-11-05T11:35:12.846Z,101787.52
2022-11-05T11:37:42.409Z,101785.97
2022-11-05T11:40:20.687Z,101788.00
2022-11-05T11:42:53.241Z,101782.48
2022-11-05T11:45:46.283Z,101784.17
2022-11-05T11:48:16.425Z,101775.24
2022-11-05T11:50:47.481Z,101781.52
2022-11-05T11:53:31.425Z,101778.98
2022-11-05T11:56:06.955Z,101786.18
2022-11-05T11:58:41.936Z,101781.66
2022-11-05T12:01:23.898Z,101785.77
2022-11-05T12:04:05.209Z,101780.30
2022-11-05T12:06:49.449Z,101785.10
2022-11-05T12:09:41.712Z,101785.24
2022-11-05T12:12:18.190Z,101785.97
2022-11-05T12:14:59.825Z,101771.41
2022-11-05T12:17:52.002Z,101771.77
2022-11-05T12:20:33.368Z,101776.79
2022-11-05T12:23:28.583Z,101766.73
2022-11-05T12:26:23.767Z,101766.34
2022-11-05T12:29:21.650Z,101761.33
2022-11-05T12:32:03.319Z,101754.20
2022-11-05T12:34:47.463Z,101756.39
2022-11-05T12:37:44.318Z,101757.62
2022-11-05T12:40:39.302Z,101753.05
2022-11-05T12:43:32.202Z,101747.77
2022-11-05T12:46:24.303Z,101741.02
2022-11-05T12:48:59.598Z,101738.81
2022-11-05T12:51:37.963Z,101731.77
2022-11-05T12:54:19.255Z,101728.75
2022-11-05T12:57:00.851Z,101725.17
2022-11-05T12:59:33.618Z,101723.56
2022-11-05T13:02:25.029Z,101721.51
2022-11-05T13:05:19.764Z,101715.37
2022-11-05T13:07:52.273Z,101707.81
2022-11-05T13:10:30.856Z,101716.38
2022-11-05T13:13:03.376Z,101715.77
2022-11-05T13:15:35.861Z,101716.23
2022-11-05T13:18:07.583Z,101712.27
2022-11-05T13:20:43.324Z,101710.61
2022-11-05T13:23:26.093Z,101705.88
2022-11-05T13:25:58.473Z,101698.14
2022-11-05T13:28:59.347Z,101695.86
2022-11-05T13:31:37.868Z,101699.34
2022-11-05T13:34:12.563Z,101697.91
2022-11-05T13:37:08.034Z,101691.55
2022-11-05T13:39:57.750Z,101689.11
2022-11-05T13:42:42.200Z,101681.31
2022-11-05T13:45:23.699Z,101674.45
2022-11-05T13:48:08.185Z,101679.61
2022-11-05T13:50:55.557Z,101679.69
2022-11-05T13:54:00.639Z,101675.38
2022-11-05T13:57:00.188Z,101680.20
2022-11-05T13:59:35.267Z,101679.80
2022-11-05T14:02:16.670Z,101681.16
2022-11-05T14:04:55.497Z,101686.16
2022-11-05T14:07:35.216Z,101691.31
2022-11-05T14:10:22.959Z,101684.19
2022-11-05T14:12:54.087Z,101682.71
2022-11-05T14:15:28.539Z,101685.45
2022-11-05T14:18:03.771Z,101684.48
2022-11-05T14:20:36.186Z,101689.63
2022-11-05T14:23:25.922Z,101698.12
2022-11-05T14:25:57.771Z,101694.80
2022-11-05T14:28:39.084Z,101692.32
2022-11-05T14:32:02.426Z,101693.21
2022-11-05T14:34:04.135Z,101690.85
2022-11-05T14:36:36.630Z,101695.04
2022-11-05T14:39:23.771Z,101695.28
2022-11-05T14:41:58.442Z,101703.81
2022-11-05T14:44:29.202Z,101699.00
2022-11-05T14:47:06.856Z,101692.53
2022-11-05T14:49:38.853Z,101688.41
2022-11-05T14:52:10.504Z,101681.39
2022-11-05T14:54:51.321Z,101692.16
2022-11-05T14:57:43.365Z,101691.69
2022-11-05T15:00:32.725Z,101679.31
2022-11-05T15:03:05.240Z,101674.78
2022-11-05T15:05:40.548Z,101669.62
2022-11-05T15:08:30.540Z,101674.05
2022-11-05T15:11:08.961Z,101676.75
2022-11-05T15:13:41.323Z,101684.75
2022-11-05T15:16:10.732Z,101679.88
2022-11-05T15:18:43.103Z,101677.59
2022-11-05T15:21:14.867Z,101672.77
2022-11-05T15:23:45.821Z,101674.44
2022-11-05T15:26:38.237Z,101671.91
2022-11-05T15:29:16.549Z,101680.28
2022-11-05T15:31:46.983Z,101666.76
2022-11-05T15:34:31.948Z,101667.91
2022-11-05T15:37:13.706Z,101667.11
2022-11-05T15:39:47.783Z,101671.16
2022-11-05T15:42:21.604Z,101662.06
2022-11-05T15:44:55.650Z,101659.66
2022-11-05T15:47:27.000Z,101664.34
2022-11-05T15:49:58.134Z,101662.45
2022-11-05T15:52:36.771Z,101665.73
2022-11-05T15:55:14.973Z,101664.41
2022-11-05T15:57:51.345Z,101659.48
2022-11-05T16:00:23.343Z,101662.03
2022-11-05T16:03:05.022Z,101657.82
2022-11-05T16:05:36.263Z,101664.32
2022-11-05T16:08:06.652Z,101672.05
2022-11-05T16:10:38.017Z,101662.06
2022-11-05T16:13:35.815Z,101662.36
2022-11-05T16:16:08.079Z,101657.52
2022-11-05T16:18:39.081Z,101659.95
2022-11-05T16:21:10.945Z,101650.73
2022-11-05T16:23:46.119Z,101649.63
2022-11-05T16:29:21.315Z,101648.14
2022-11-05T16:31:52.184Z,101645.05
2022-11-05T16:34:26.991Z,101639.53
2022-11-05T16:36:57.978Z,101639.46
2022-11-05T16:39:27.607Z,101643.27
2022-11-05T16:41:57.456Z,101637.05
2022-11-05T16:44:27.025Z,101633.78
2022-11-05T16:46:56.478Z,101632.14
2022-11-05T16:49:25.694Z,101633.63
2022-11-05T16:51:54.931Z,101638.28
2022-11-05T16:54:24.389Z,101628.14
2022-11-05T16:56:53.681Z,101627.27
2022-11-05T16:59:23.163Z,101623.70
2022-11-05T17:01:55.819Z,101622.03
2022-11-05T17:04:23.816Z,101625.12
2022-11-05T17:06:53.315Z,101613.67
2022-11-05T17:09:22.533Z,101621.17
2022-11-05T17:11:52.090Z,101621.45
2022-11-05T17:14:21.590Z,101614.41
2022-11-05T17:16:51.001Z,101610.54
2022-11-05T17:19:20.498Z,101610.46
2022-11-05T17:21:50.112Z,101617.50
2022-11-05T17:24:19.353Z,101618.30
2022-11-05T17:26:48.769Z,101619.39
2022-11-05T17:29:18.193Z,101625.12
2022-11-05T17:31:47.444Z,101632.23
2022-11-05T17:34:16.636Z,101634.29
2022-11-05T17:36:45.897Z,101647.80
2022-11-05T17:39:15.180Z,101649.64
2022-11-05T17:41:44.641Z,101653.02
2022-11-05T17:44:13.919Z,101650.17
2022-11-05T17:46:43.166Z,101659.84
2022-11-05T17:49:12.383Z,101658.06
2022-11-05T17:51:41.887Z,101662.23
2022-11-05T17:54:11.101Z,101658.78
2022-11-05T17:56:44.658Z,101664.05
2022-11-05T17:59:12.226Z,101668.16
2022-11-05T18:01:44.274Z,101671.59
2022-11-05T18:04:13.810Z,101669.91
2022-11-05T18:06:43.442Z,101662.05
2022-11-05T18:09:14.282Z,101663.94
2022-11-05T18:11:43.589Z,101662.84
2022-11-05T18:14:13.073Z,101674.47
2022-11-05T18:16:43.046Z,101667.80
2022-11-05T18:19:12.271Z,101679.66
2022-11-05T18:21:41.792Z,101666.67
2022-11-05T18:24:11.321Z,101673.26
2022-11-05T18:26:40.616Z,101671.48
2022-11-05T18:29:10.038Z,101673.78
2022-11-05T18:31:39.436Z,101666.98
2022-11-05T18:34:10.459Z,101664.67
2022-11-05T18:36:40.037Z,101673.86
2022-11-05T18:39:09.456Z,101667.17
2022-11-05T18:41:39.024Z,101659.63
2022-11-05T18:44:08.889Z,101661.91
2022-11-05T18:49:12.518Z,101652.25
2022-11-05T18:51:42.134Z,101653.33
2022-11-05T18:54:11.447Z,101651.84
2022-11-05T18:56:42.507Z,101644.91
2022-11-05T18:59:35.774Z,101639.88
2022-11-05T19:01:47.257Z,101640.34
2022-11-05T19:04:16.665Z,101645.94
2022-11-05T19:06:46.247Z,101630.36
2022-11-05T19:09:15.634Z,101621.87
2022-11-05T19:11:44.961Z,101617.97
2022-11-05T19:14:14.460Z,101606.34
2022-11-05T19:16:43.781Z,101583.45
2022-11-05T19:19:13.311Z,101569.20
2022-11-05T19:21:42.900Z,101564.16
2022-11-05T19:24:16.837Z,101566.78
2022-11-05T19:26:43.816Z,101571.36
2022-11-05T19:29:13.250Z,101575.88
2022-11-05T19:31:42.577Z,101584.30
2022-11-05T19:34:13.419Z,101577.09
2022-11-05T19:36:43.378Z,101561.71
2022-11-05T19:39:15.058Z,101564.67
2022-11-05T19:41:44.303Z,101564.09
2022-11-05T19:44:13.849Z,101576.08
2022-11-05T19:46:43.922Z,101576.88
2022-11-05T19:49:13.554Z,101580.11
2022-11-05T19:51:42.842Z,101572.54
2022-11-05T19:54:12.092Z,101582.22
2022-11-05T19:56:41.309Z,101572.65
2022-11-05T19:59:12.978Z,101576.29
2022-11-05T20:01:42.379Z,101573.81
2022-11-05T20:04:12.154Z,101568.30
2022-11-05T20:06:41.446Z,101561.20
2022-11-05T20:09:22.541Z,101556.59
2022-11-05T20:11:45.367Z,101562.42
2022-11-05T20:14:14.672Z,101559.79
2022-11-05T20:16:45.977Z,101560.22
2022-11-05T20:19:18.474Z,101564.58
2022-11-05T20:21:48.075Z,101562.48
2022-11-05T20:24:24.887Z,101564.05
2022-11-05T20:26:52.391Z,101562.84
2022-11-05T20:29:22.224Z,101569.95
2022-11-05T20:31:52.065Z,101571.02
2022-11-05T20:34:21.466Z,101575.53
2022-11-05T20:36:51.054Z,101574.89
2022-11-05T20:39:21.387Z,101571.12
2022-11-05T20:41:50.919Z,101571.69
2022-11-05T20:44:20.786Z,101567.68
2022-11-05T20:46:50.162Z,101566.75
2022-11-05T20:49:24.970Z,101565.05
2022-11-05T20:51:50.829Z,101567.78
2022-11-05T20:54:20.291Z,101557.98
2022-11-05T20:56:49.830Z,101563.27
2022-11-05T20:59:19.611Z,101558.55
2022-11-05T21:01:49.128Z,101566.43
2022-11-05T21:04:18.542Z,101571.80
2022-11-05T21:06:47.814Z,101574.21
2022-11-05T21:09:17.043Z,101575.27
2022-11-05T21:12:04.145Z,101574.42
2022-11-05T21:14:33.366Z,101563.59
2022-11-05T21:17:02.692Z,101568.53
2022-11-05T21:19:32.963Z,101565.44
2022-11-05T21:22:03.413Z,101564.59
2022-11-05T21:24:33.909Z,101565.12
2022-11-05T21:27:03.185Z,101566.19
2022-11-05T21:29:32.408Z,101576.70
2022-11-05T21:32:01.682Z,101571.91
2022-11-05T21:34:30.981Z,101574.67
2022-11-05T21:37:00.276Z,101568.11
2022-11-05T21:39:29.551Z,101570.27
2022-11-05T21:41:58.831Z,101571.73
2022-11-05T21:44:28.041Z,101557.98
2022-11-05T21:46:58.406Z,101560.17
2022-11-05T21:49:29.222Z,101553.60
2022-11-05T21:52:16.400Z,101553.81
2022-11-05T21:55:03.568Z,101552.00
2022-11-05T21:57:52.509Z,101557.77
2022-11-05T22:00:21.816Z,101555.56
2022-11-05T22:02:53.901Z,101544.86
2022-11-05T22:05:23.429Z,101534.56
2022-11-05T22:07:52.733Z,101537.98
2022-11-05T22:10:22.168Z,101533.81
2022-11-05T22:12:51.396Z,101526.89
2022-11-05T22:15:22.927Z,101530.98
2022-11-05T22:17:52.532Z,101526.25
2022-11-05T22:20:22.161Z,101526.14
2022-11-05T22:22:53.115Z,101528.87
2022-11-05T22:25:22.535Z,101529.63
2022-11-05T22:27:51.807Z,101524.79
2022-11-05T22:30:21.162Z,101528.06
2022-11-05T22:32:50.393Z,101530.50
2022-11-05T22:35:19.861Z,101524.89
2022-11-05T22:37:49.083Z,101523.90
2022-11-05T22:40:21.134Z,101519.84
2022-11-05T22:42:49.607Z,101518.93
2022-11-05T22:45:19.265Z,101511.64
2022-11-05T22:47:48.643Z,101504.55
2022-11-05T22:50:18.072Z,101517.05
2022-11-05T22:52:47.334Z,101503.91
2022-11-05T22:55:16.701Z,101496.66
2022-11-05T22:57:46.160Z,101503.44
2022-11-05T23:00:17.787Z,101505.93
2022-11-05T23:02:47.432Z,101503.77
2022-11-05T23:05:16.774Z,101498.97
2022-11-05T23:08:03.854Z,101493.36
2022-11-05T23:10:51.381Z,101497.77
2022-11-05T23:13:20.977Z,101499.36
2022-11-05T23:16:08.323Z,101496.73
2022-11-05T23:18:55.241Z,101500.34
2022-11-05T23:21:42.417Z,101504.08
2022-11-05T23:24:13.485Z,101500.07
2022-11-05T23:26:52.134Z,101485.39
2022-11-05T23:29:26.254Z,101483.48
2022-11-05T23:32:13.637Z,101482.98
2022-11-05T23:34:43.032Z,101484.27
2022-11-05T23:37:30.467Z,101476.38
2022-11-05T23:39:59.728Z,101472.90
2022-11-05T23:42:47.273Z,101464.55
2022-11-05T23:45:34.861Z,101462.27
2022-11-05T23:48:18.184Z,101459.75
2022-11-05T23:50:52.902Z,101460.03
2022-11-05T23:53:22.405Z,101455.81
2022-11-05T23:55:52.376Z,101456.80
2022-11-05T23:58:21.669Z,101461.95
